createdAt,value
2019-05-07T00:01:27.538Z,97519.01
2019-05-07T00:03:54.367Z,97519.93
2019-05-07T00:06:23.090Z,97518.59
2019-05-07T00:08:52.136Z,97520.25
2019-05-07T00:11:18.328Z,97526.80
2019-05-07T00:13:44.939Z,97516.63
2019-05-07T00:16:12.816Z,97518.11
2019-05-07T00:18:39.932Z,97530.42
2019-05-07T00:21:06.531Z,97532.05
2019-05-07T00:23:33.647Z,97524.70
2019-05-07T00:26:02.385Z,97526.25
2019-05-07T00:28:28.962Z,97526.82
2019-05-07T00:30:55.600Z,97530.51
2019-05-07T00:33:22.777Z,97520.87
2019-05-07T00:35:49.421Z,97531.46
2019-05-07T00:38:16.561Z,97534.24
2019-05-07T00:40:43.467Z,97539.14
2019-05-07T00:43:12.015Z,97534.91
2019-05-07T00:45:42.213Z,97539.58
2019-05-07T00:48:12.663Z,97538.92
2019-05-07T00:50:42.293Z,97538.38
2019-05-07T00:53:13.070Z,97546.91
2019-05-07T00:55:43.999Z,97549.52
2019-05-07T00:58:14.934Z,97545.75
2019-05-07T01:00:42.303Z,97544.51
2019-05-07T01:03:12.832Z,97544.20
2019-05-07T01:05:43.218Z,97547.59
2019-05-07T01:08:10.280Z,97548.56
2019-05-07T01:10:41.420Z,97546.97
2019-05-07T01:13:08.711Z,97548.94
2019-05-07T01:15:38.668Z,97547.06
2019-05-07T01:18:08.247Z,97562.58
2019-05-07T01:20:35.128Z,97547.75
2019-05-07T01:23:04.266Z,97549.06
2019-05-07T01:25:33.502Z,97555.97
2019-05-07T01:28:03.251Z,97549.52
2019-05-07T01:30:32.440Z,97552.41
2019-05-07T01:33:03.462Z,97557.20
2019-05-07T01:35:32.518Z,97549.75
2019-05-07T01:38:03.627Z,97556.63
2019-05-07T01:40:33.072Z,97557.09
2019-05-07T01:43:02.825Z,97555.86
2019-05-07T01:45:45.819Z,97560.05
2019-05-07T01:48:04.506Z,97554.49
2019-05-07T01:50:32.311Z,97554.49
2019-05-07T01:53:07.555Z,97567.78
2019-05-07T01:55:32.062Z,97563.73
2019-05-07T01:58:04.755Z,97564.72
2019-05-07T02:00:29.727Z,97567.00
2019-05-07T02:02:58.914Z,97571.75
2019-05-07T02:05:28.363Z,97571.59
2019-05-07T02:07:55.304Z,97566.63
2019-05-07T02:10:24.597Z,97571.08
2019-05-07T02:12:52.637Z,97565.85
2019-05-07T02:15:19.475Z,97568.28
2019-05-07T02:17:47.908Z,97574.20
2019-05-07T02:20:17.104Z,97576.66
2019-05-07T02:22:45.214Z,97566.03
2019-05-07T02:25:25.791Z,97567.34
2019-05-07T02:27:54.426Z,97575.19
2019-05-07T02:30:23.792Z,97578.13
2019-05-07T02:32:53.691Z,97579.11
2019-05-07T02:35:18.011Z,97579.95
2019-05-07T02:37:52.499Z,97586.48
2019-05-07T02:40:17.887Z,97578.97
2019-05-07T02:42:44.543Z,97583.54
2019-05-07T02:45:13.302Z,97588.11
2019-05-07T02:47:40.102Z,97580.41
2019-05-07T02:50:06.979Z,97576.16
2019-05-07T02:52:33.670Z,97578.93
2019-05-07T02:55:03.573Z,97577.81
2019-05-07T02:57:28.748Z,97577.83
2019-05-07T02:59:55.857Z,97576.68
2019-05-07T03:02:24.071Z,97578.31
2019-05-07T03:04:53.266Z,97576.98
2019-05-07T03:07:19.459Z,97576.47
2019-05-07T03:09:46.116Z,97576.69
2019-05-07T03:12:13.368Z,97579.95
2019-05-07T03:14:43.815Z,97577.30
2019-05-07T03:17:13.370Z,97570.94
2019-05-07T03:19:39.091Z,97567.66
2019-05-07T03:22:05.982Z,97566.34
2019-05-07T03:24:34.226Z,97562.42
2019-05-07T03:27:03.274Z,97563.69
2019-05-07T03:29:29.550Z,97566.97
2019-05-07T03:31:57.775Z,97564.03
2019-05-07T03:34:25.912Z,97564.83
2019-05-07T03:36:56.278Z,97570.23
2019-05-07T03:39:23.821Z,97564.00
2019-05-07T03:41:49.588Z,97570.91
2019-05-07T03:44:17.460Z,97573.55
2019-05-07T03:46:54.475Z,97570.28
2019-05-07T03:49:13.683Z,97562.58
2019-05-07T03:51:43.958Z,97568.47
2019-05-07T03:54:09.209Z,97567.32
2019-05-07T03:56:35.789Z,97565.52
2019-05-07T03:59:03.626Z,97560.44
2019-05-07T04:01:33.279Z,97565.36
2019-05-07T04:04:03.767Z,97573.17
2019-05-07T04:06:33.060Z,97570.73
2019-05-07T04:08:58.735Z,97575.48
2019-05-07T04:11:26.800Z,97574.88
2019-05-07T04:13:53.747Z,97581.08
2019-05-07T04:16:20.288Z,97582.23
2019-05-07T04:18:47.012Z,97580.28
2019-05-07T04:21:14.411Z,97580.11
2019-05-07T04:23:43.679Z,97583.21
2019-05-07T04:26:09.849Z,97582.73
2019-05-07T04:28:37.670Z,97588.59
2019-05-07T04:33:53.379Z,97595.59
2019-05-07T04:36:22.753Z,97592.02
2019-05-07T04:38:53.197Z,97594.16
2019-05-07T04:41:23.351Z,97595.08
2019-05-07T04:43:49.689Z,97590.17
2019-05-07T04:46:19.367Z,97596.41
2019-05-07T04:48:46.446Z,97596.23
2019-05-07T04:51:13.823Z,97597.31
2019-05-07T04:53:42.876Z,97605.18
2019-05-07T04:56:14.027Z,97599.20
2019-05-07T04:58:43.079Z,97589.98
2019-05-07T05:01:08.649Z,97591.01
2019-05-07T05:03:38.978Z,97597.38
2019-05-07T05:06:03.623Z,97598.48
2019-05-07T05:08:32.570Z,97597.23
2019-05-07T05:11:03.304Z,97598.36
2019-05-07T05:13:29.418Z,97600.42
2019-05-07T05:15:56.016Z,97600.80
2019-05-07T05:18:26.742Z,97603.13
2019-05-07T05:20:53.509Z,97606.03
2019-05-07T05:23:22.748Z,97604.03
2019-05-07T05:25:52.222Z,97614.50
2019-05-07T05:28:18.358Z,97614.70
2019-05-07T05:30:45.222Z,97610.20
2019-05-07T05:33:14.359Z,97609.78
2019-05-07T05:35:43.145Z,97607.06
2019-05-07T05:38:12.553Z,97619.18
2019-05-07T05:40:38.880Z,97612.28
2019-05-07T05:43:06.855Z,97620.16
2019-05-07T05:45:37.746Z,97623.12
2019-05-07T05:48:08.080Z,97622.34
2019-05-07T05:50:34.430Z,97628.33
2019-05-07T05:53:02.781Z,97628.41
2019-05-07T05:55:32.180Z,97627.10
2019-05-07T05:58:03.326Z,97630.23
2019-05-07T06:00:32.839Z,97630.94
2019-05-07T06:02:59.941Z,97630.30
2019-05-07T06:05:26.808Z,97636.94
2019-05-07T06:07:56.406Z,97626.41
2019-05-07T06:10:24.255Z,97631.44
2019-05-07T06:12:52.318Z,97623.53
2019-05-07T06:15:22.212Z,97621.23
2019-05-07T06:17:52.325Z,97625.48
2019-05-07T06:20:32.033Z,97628.08
2019-05-07T06:23:01.959Z,97626.47
2019-05-07T06:25:33.463Z,97631.61
2019-05-07T06:28:01.906Z,97635.83
2019-05-07T06:30:34.487Z,97640.25
2019-05-07T06:33:02.834Z,97636.67
2019-05-07T06:35:34.133Z,97640.38
2019-05-07T06:38:05.579Z,97637.53
2019-05-07T06:40:36.486Z,97641.73
2019-05-07T06:43:03.238Z,97641.91
2019-05-07T06:45:32.584Z,97638.13
2019-05-07T06:48:02.964Z,97642.08
2019-05-07T06:50:32.636Z,97639.39
2019-05-07T06:52:58.434Z,97637.43
2019-05-07T06:55:25.334Z,97635.42
2019-05-07T06:57:53.017Z,97633.22
2019-05-07T07:00:19.779Z,97632.83
2019-05-07T07:02:46.786Z,97630.36
2019-05-07T07:05:13.381Z,97631.67
2019-05-07T07:07:42.174Z,97623.80
2019-05-07T07:10:08.614Z,97631.03
2019-05-07T07:12:35.550Z,97631.61
2019-05-07T07:15:02.710Z,97627.91
2019-05-07T07:17:29.799Z,97628.34
2019-05-07T07:19:56.465Z,97629.95
2019-05-07T07:22:23.086Z,97628.33
2019-05-07T07:24:50.134Z,97629.42
2019-05-07T07:27:16.737Z,97632.89
2019-05-07T07:29:45.000Z,97628.30
2019-05-07T07:32:12.861Z,97628.00
2019-05-07T07:34:42.534Z,97621.27
2019-05-07T07:37:15.533Z,97613.35
2019-05-07T07:39:40.301Z,97611.54
2019-05-07T07:42:07.496Z,97604.69
2019-05-07T07:44:36.940Z,97606.39
2019-05-07T07:47:02.969Z,97613.38
2019-05-07T07:49:30.120Z,97611.08
2019-05-07T07:51:57.181Z,97604.89
2019-05-07T07:54:25.092Z,97606.98
2019-05-07T07:56:55.653Z,97604.66
2019-05-07T07:59:22.179Z,97612.77
2019-05-07T08:01:49.891Z,97613.25
2019-05-07T08:04:16.820Z,97606.08
2019-05-07T08:06:43.672Z,97608.75
2019-05-07T08:09:12.732Z,97612.88
2019-05-07T08:11:39.839Z,97611.38
2019-05-07T08:14:06.856Z,97618.86
2019-05-07T08:16:35.716Z,97621.59
2019-05-07T08:19:03.016Z,97620.84
2019-05-07T08:21:30.373Z,97614.54
2019-05-07T08:23:58.189Z,97618.95
2019-05-07T08:26:24.819Z,97611.14
2019-05-07T08:28:52.389Z,97613.56
2019-05-07T08:31:19.147Z,97615.56
2019-05-07T08:33:46.076Z,97614.37
2019-05-07T08:36:14.821Z,97615.10
2019-05-07T08:38:42.601Z,97613.23
2019-05-07T08:41:11.928Z,97618.79
2019-05-07T08:43:39.191Z,97616.86
2019-05-07T08:46:06.203Z,97611.80
2019-05-07T08:48:34.568Z,97626.56
2019-05-07T08:51:02.576Z,97613.07
2019-05-07T08:53:30.287Z,97609.73
2019-05-07T08:56:03.277Z,97619.44
2019-05-07T08:58:31.725Z,97614.94
2019-05-07T09:01:02.913Z,97610.88
2019-05-07T09:03:42.881Z,97612.16
2019-05-07T09:06:07.519Z,97611.98
2019-05-07T09:08:43.513Z,97607.78
2019-05-07T09:11:25.592Z,97613.89
2019-05-07T09:16:26.694Z,97608.45
2019-05-07T09:18:54.643Z,97606.08
2019-05-07T09:24:12.151Z,97605.30
2019-05-07T09:26:41.785Z,97602.89
2019-05-07T09:29:13.749Z,97609.56
2019-05-07T09:31:45.332Z,97611.38
2019-05-07T09:34:22.209Z,97601.66
2019-05-07T09:36:51.858Z,97599.08
2019-05-07T09:39:22.855Z,97611.05
2019-05-07T09:41:52.653Z,97611.98
2019-05-07T09:44:22.142Z,97608.01
2019-05-07T09:46:58.337Z,97605.99
2019-05-07T09:52:14.039Z,97597.33
2019-05-07T09:54:52.150Z,97602.19
2019-05-07T09:57:27.365Z,97599.08
2019-05-07T09:59:44.510Z,97604.47
2019-05-07T10:02:16.206Z,97597.12
2019-05-07T10:04:47.348Z,97593.98
2019-05-07T10:07:22.089Z,97592.80
2019-05-07T10:09:52.752Z,97599.16
2019-05-07T10:12:22.334Z,97604.55
2019-05-07T10:17:38.482Z,97586.55
2019-05-07T10:20:18.112Z,97582.38
2019-05-07T10:22:45.607Z,97576.44
2019-05-07T10:25:16.439Z,97585.14
2019-05-07T10:27:47.503Z,97570.64
2019-05-07T10:30:15.499Z,97570.12
2019-05-07T10:32:57.434Z,97569.95
2019-05-07T10:35:31.154Z,97552.86
2019-05-07T10:38:05.470Z,97567.00
2019-05-07T10:40:32.757Z,97570.25
2019-05-07T10:43:14.092Z,97568.66
2019-05-07T10:45:32.392Z,97564.30
2019-05-07T10:48:11.697Z,97556.73
2019-05-07T10:50:42.470Z,97552.13
2019-05-07T10:53:10.008Z,97562.21
2019-05-07T10:55:38.721Z,97554.42
2019-05-07T10:58:21.139Z,97544.38
2019-05-07T11:00:52.350Z,97540.44
2019-05-07T11:03:24.731Z,97540.20
2019-05-07T11:05:52.852Z,97540.76
2019-05-07T11:08:25.577Z,97532.03
2019-05-07T11:10:52.193Z,97539.69
2019-05-07T11:13:23.073Z,97530.55
2019-05-07T11:15:53.730Z,97531.88
2019-05-07T11:18:33.093Z,97524.31
2019-05-07T11:21:04.083Z,97521.69
2019-05-07T11:23:34.555Z,97520.33
2019-05-07T11:26:05.093Z,97521.26
2019-05-07T11:28:43.092Z,97525.19
2019-05-07T11:33:41.845Z,97521.89
2019-05-07T11:36:10.850Z,97520.35
2019-05-07T11:38:52.710Z,97513.16
2019-05-07T11:41:19.993Z,97505.14
2019-05-07T11:43:49.780Z,97508.44
2019-05-07T11:46:32.753Z,97513.98
2019-05-07T11:49:03.261Z,97502.39
2019-05-07T11:51:30.373Z,97502.30
2019-05-07T11:53:58.799Z,97497.33
2019-05-07T11:56:26.313Z,97502.09
2019-05-07T11:58:54.852Z,97500.92
2019-05-07T12:04:12.519Z,97482.28
2019-05-07T12:06:39.429Z,97480.16
2019-05-07T12:09:09.288Z,97483.96
2019-05-07T12:11:37.822Z,97494.70
2019-05-07T12:14:07.813Z,97478.55
2019-05-07T12:16:42.488Z,97483.89
2019-05-07T12:19:07.656Z,97490.94
2019-05-07T12:21:37.354Z,97487.31
2019-05-07T12:24:06.909Z,97481.12
2019-05-07T12:26:35.889Z,97480.98
2019-05-07T12:29:03.481Z,97473.03
2019-05-07T12:31:34.507Z,97467.24
2019-05-07T12:34:02.640Z,97468.72
2019-05-07T12:36:32.052Z,97466.72
2019-05-07T12:39:02.288Z,97463.91
2019-05-07T12:41:33.752Z,97461.44
2019-05-07T12:44:02.431Z,97462.30
2019-05-07T12:46:33.147Z,97463.20
2019-05-07T12:48:59.978Z,97453.12
2019-05-07T12:51:36.395Z,97454.24
2019-05-07T12:54:16.501Z,97457.98
2019-05-07T12:56:48.002Z,97455.19
2019-05-07T12:59:18.951Z,97456.33
2019-05-07T13:01:49.701Z,97447.43
2019-05-07T13:04:28.352Z,97446.09
2019-05-07T13:07:04.674Z,97440.10
2019-05-07T13:09:38.299Z,97443.22
2019-05-07T13:12:04.708Z,97438.58
2019-05-07T13:14:31.666Z,97437.30
2019-05-07T13:16:59.737Z,97437.41
2019-05-07T13:19:27.743Z,97430.44
2019-05-07T13:21:54.583Z,97434.45
2019-05-07T13:24:23.531Z,97428.87
2019-05-07T13:26:55.962Z,97422.36
2019-05-07T13:29:22.747Z,97424.58
2019-05-07T13:31:53.918Z,97421.69
2019-05-07T13:34:20.149Z,97421.72
2019-05-07T13:36:46.896Z,97426.13
2019-05-07T13:39:13.809Z,97422.00
2019-05-07T13:41:40.406Z,97421.25
2019-05-07T13:44:07.353Z,97414.73
2019-05-07T13:46:33.964Z,97416.38
2019-05-07T13:49:02.105Z,97411.31
2019-05-07T13:51:30.868Z,97407.09
2019-05-07T13:53:57.760Z,97404.16
2019-05-07T13:56:24.660Z,97409.98
2019-05-07T13:58:52.242Z,97402.77
2019-05-07T14:01:19.382Z,97405.77
2019-05-07T14:03:46.172Z,97403.86
2019-05-07T14:06:13.556Z,97398.15
2019-05-07T14:08:42.332Z,97397.70
2019-05-07T14:11:09.161Z,97388.37
2019-05-07T14:13:36.034Z,97383.83
2019-05-07T14:16:03.025Z,97386.77
2019-05-07T14:18:29.984Z,97386.52
2019-05-07T14:20:56.794Z,97380.60
2019-05-07T14:23:23.616Z,97380.63
2019-05-07T14:25:52.562Z,97376.06
2019-05-07T14:28:19.075Z,97379.70
2019-05-07T14:30:45.952Z,97373.20
2019-05-07T14:33:18.382Z,97376.12
2019-05-07T14:35:45.519Z,97375.94
2019-05-07T14:38:15.970Z,97370.11
2019-05-07T14:40:43.085Z,97375.88
2019-05-07T14:43:09.979Z,97371.98
2019-05-07T14:48:12.166Z,97378.23
2019-05-07T14:50:38.785Z,97373.85
2019-05-07T14:53:11.960Z,97378.55
2019-05-07T14:55:38.547Z,97369.27
2019-05-07T14:58:08.773Z,97370.13
2019-05-07T15:00:35.520Z,97365.28
2019-05-07T15:03:02.473Z,97364.97
2019-05-07T15:05:29.110Z,97370.60
2019-05-07T15:08:08.290Z,97369.53
2019-05-07T15:10:26.654Z,97372.20
2019-05-07T15:12:54.136Z,97366.31
2019-05-07T15:15:24.381Z,97366.34
2019-05-07T15:17:54.874Z,97364.45
2019-05-07T15:20:22.546Z,97370.81
2019-05-07T15:22:52.751Z,97369.60
2019-05-07T15:25:22.541Z,97370.30
2019-05-07T15:27:49.504Z,97363.72
2019-05-07T15:30:21.795Z,97363.67
2019-05-07T15:32:49.060Z,97368.77
2019-05-07T15:35:15.935Z,97366.39
2019-05-07T15:37:45.778Z,97369.22
2019-05-07T15:40:17.323Z,97370.02
2019-05-07T15:42:46.686Z,97363.58
2019-05-07T15:45:15.853Z,97363.12
2019-05-07T15:47:44.522Z,97360.67
2019-05-07T15:50:12.617Z,97365.52
2019-05-07T15:52:41.093Z,97362.83
2019-05-07T15:55:11.998Z,97358.52
2019-05-07T15:57:42.808Z,97360.09
2019-05-07T16:00:14.229Z,97359.49
2019-05-07T16:02:45.365Z,97361.96
2019-05-07T16:05:12.393Z,97366.98
2019-05-07T16:07:39.207Z,97371.13
2019-05-07T16:10:12.095Z,97367.94
2019-05-07T16:12:42.351Z,97364.47
2019-05-07T16:15:09.275Z,97359.59
2019-05-07T16:17:36.143Z,97368.68
2019-05-07T16:20:04.182Z,97359.05
2019-05-07T16:22:32.750Z,97361.27
2019-05-07T16:25:04.899Z,97358.76
2019-05-07T16:27:28.774Z,97362.94
2019-05-07T16:29:57.495Z,97362.85
2019-05-07T16:32:24.284Z,97358.83
2019-05-07T16:34:52.731Z,97361.49
2019-05-07T16:37:23.867Z,97364.11
2019-05-07T16:39:52.724Z,97368.21
2019-05-07T16:42:22.144Z,97373.23
2019-05-07T16:44:48.769Z,97379.56
2019-05-07T16:47:15.887Z,97374.45
2019-05-07T16:49:46.325Z,97374.00
2019-05-07T16:52:16.902Z,97382.89
2019-05-07T16:54:47.221Z,97382.94
2019-05-07T16:57:13.861Z,97376.19
2019-05-07T16:59:43.058Z,97375.98
2019-05-07T17:02:10.437Z,97378.91
2019-05-07T17:04:37.290Z,97378.28
2019-05-07T17:07:07.695Z,97374.20
2019-05-07T17:09:35.490Z,97374.14
2019-05-07T17:12:03.546Z,97378.98
2019-05-07T17:14:32.349Z,97383.70
2019-05-07T17:16:59.570Z,97385.23
2019-05-07T17:19:26.510Z,97387.40
2019-05-07T17:21:56.101Z,97389.08
2019-05-07T17:24:27.056Z,97389.34
2019-05-07T17:26:57.945Z,97398.08
2019-05-07T17:29:32.160Z,97400.39
2019-05-07T17:31:58.021Z,97402.74
2019-05-07T17:34:26.373Z,97406.22
2019-05-07T17:36:57.632Z,97408.38
2019-05-07T17:39:24.253Z,97416.60
2019-05-07T17:41:51.861Z,97413.23
2019-05-07T17:44:19.923Z,97426.98
2019-05-07T17:46:46.748Z,97428.56
2019-05-07T17:49:13.588Z,97428.28
2019-05-07T17:51:42.147Z,97430.08
2019-05-07T17:54:12.858Z,97442.73
2019-05-07T17:56:39.482Z,97440.75
2019-05-07T17:59:06.108Z,97448.11
2019-05-07T18:01:32.995Z,97447.19
2019-05-07T18:03:59.856Z,97454.36
2019-05-07T18:06:26.832Z,97458.28
2019-05-07T18:08:53.475Z,97454.77
2019-05-07T18:11:23.637Z,97449.41
2019-05-07T18:13:51.807Z,97451.02
2019-05-07T18:16:17.098Z,97454.35
2019-05-07T18:18:43.963Z,97461.38
2019-05-07T18:21:12.627Z,97459.52
2019-05-07T18:23:39.567Z,97455.48
2019-05-07T18:26:06.159Z,97463.17
2019-05-07T18:28:35.704Z,97467.16
2019-05-07T18:31:04.549Z,97468.75
2019-05-07T18:33:33.466Z,97468.95
2019-05-07T18:35:59.956Z,97472.38
2019-05-07T18:38:27.383Z,97474.84
2019-05-07T18:40:53.974Z,97486.11
2019-05-07T18:46:06.851Z,97486.53
2019-05-07T18:48:35.940Z,97495.43
2019-05-07T18:51:07.991Z,97485.61
2019-05-07T18:53:36.438Z,97497.63
2019-05-07T18:56:04.370Z,97504.88
2019-05-07T18:58:36.866Z,97503.33
2019-05-07T19:01:07.397Z,97502.23
2019-05-07T19:17:28.411Z,97526.84
2019-05-07T19:19:57.170Z,97521.82
2019-05-07T19:33:46.050Z,97528.83
2019-05-07T19:37:02.610Z,97529.72
2019-05-07T19:38:59.253Z,97524.68
2019-05-07T19:44:23.161Z,97528.14
2019-05-07T19:47:03.605Z,97527.41
2019-05-07T19:49:27.793Z,97519.92
2019-05-07T19:54:57.914Z,97527.45
2019-05-07T19:57:15.068Z,97535.48
2019-05-07T19:59:42.861Z,97539.23
2019-05-07T20:02:09.761Z,97532.83
2019-05-07T20:04:36.377Z,97536.03
2019-05-07T20:07:03.009Z,97536.63
2019-05-07T20:09:32.346Z,97534.97
2019-05-07T20:12:03.382Z,97539.37
2019-05-07T20:14:32.984Z,97535.05
2019-05-07T20:17:01.280Z,97537.88
2019-05-07T20:19:32.325Z,97541.66
2019-05-07T20:22:01.955Z,97541.89
2019-05-07T20:24:32.391Z,97541.16
2019-05-07T20:27:03.074Z,97546.12
2019-05-07T20:29:29.434Z,97544.53
2019-05-07T20:31:56.647Z,97542.43
2019-05-07T20:34:26.947Z,97539.86
2019-05-07T20:36:57.588Z,97544.72
2019-05-07T20:39:32.306Z,97545.13
2019-05-07T20:42:03.063Z,97550.96
2019-05-07T20:44:31.775Z,97551.84
2019-05-07T20:46:59.228Z,97542.54
2019-05-07T20:49:25.823Z,97554.11
2019-05-07T20:51:53.656Z,97557.27
2019-05-07T20:54:22.958Z,97556.02
2019-05-07T20:56:51.769Z,97555.98
2019-05-07T20:59:21.967Z,97551.72
2019-05-07T21:01:48.898Z,97560.28
2019-05-07T21:04:15.474Z,97559.37
2019-05-07T21:06:43.165Z,97557.03
2019-05-07T21:09:12.621Z,97554.57
2019-05-07T21:11:39.025Z,97556.50
2019-05-07T21:14:05.775Z,97555.56
2019-05-07T21:16:32.955Z,97556.58
2019-05-07T21:19:01.987Z,97558.14
2019-05-07T21:21:28.236Z,97564.02
2019-05-07T21:23:55.166Z,97566.07
2019-05-07T21:26:22.456Z,97565.36
2019-05-07T21:28:49.322Z,97566.19
2019-05-07T21:31:16.227Z,97565.77
2019-05-07T21:33:43.050Z,97569.41
2019-05-07T21:36:11.891Z,97568.61
2019-05-07T21:38:37.983Z,97563.70
2019-05-07T21:41:04.698Z,97565.78
2019-05-07T21:43:32.679Z,97565.81
2019-05-07T21:45:59.730Z,97565.42
2019-05-07T21:48:26.351Z,97560.73
2019-05-07T21:50:53.983Z,97560.72
2019-05-07T21:53:22.755Z,97562.08
2019-05-07T21:56:01.420Z,97560.64
2019-05-07T21:58:17.593Z,97557.48
2019-05-07T22:00:44.511Z,97554.86
2019-05-07T22:03:12.473Z,97559.03
2019-05-07T22:05:39.741Z,97558.92
2019-05-07T22:08:06.347Z,97566.69
2019-05-07T22:10:33.076Z,97564.84
2019-05-07T22:12:59.852Z,97567.09
2019-05-07T22:15:26.536Z,97566.17
2019-05-07T22:17:53.384Z,97563.06
2019-05-07T22:20:19.967Z,97556.08
2019-05-07T22:22:46.596Z,97559.44
2019-05-07T22:25:13.209Z,97557.89
2019-05-07T22:27:42.097Z,97556.97
2019-05-07T22:30:08.758Z,97554.17
2019-05-07T22:32:35.694Z,97551.72
2019-05-07T22:35:02.878Z,97551.92
2019-05-07T22:37:31.832Z,97546.41
2019-05-07T22:39:58.181Z,97541.80
2019-05-07T22:42:25.261Z,97542.91
2019-05-07T22:44:54.651Z,97537.21
2019-05-07T22:47:23.070Z,97535.53
2019-05-07T22:49:53.979Z,97533.62
2019-05-07T22:52:23.923Z,97527.47
2019-05-07T22:54:50.471Z,97529.02
2019-05-07T22:57:18.761Z,97532.67
2019-05-07T22:59:47.384Z,97526.23
2019-05-07T23:02:16.765Z,97538.66
2019-05-07T23:04:44.555Z,97530.34
2019-05-07T23:07:15.260Z,97533.47
2019-05-07T23:09:44.783Z,97532.99
2019-05-07T23:12:13.240Z,97529.80
2019-05-07T23:14:41.597Z,97536.13
2019-05-07T23:17:09.691Z,97530.99
2019-05-07T23:19:39.490Z,97526.41
2019-05-07T23:22:08.769Z,97527.04
2019-05-07T23:24:37.768Z,97523.73
2019-05-07T23:27:06.897Z,97527.66
2019-05-07T23:29:36.191Z,97524.91
2019-05-07T23:32:02.841Z,97528.42
2019-05-07T23:34:32.442Z,97528.28
2019-05-07T23:36:59.784Z,97525.52
2019-05-07T23:39:28.843Z,97519.45
2019-05-07T23:41:58.062Z,97522.50
2019-05-07T23:44:29.312Z,97512.54
2019-05-07T23:46:57.650Z,97514.70
2019-05-07T23:49:27.043Z,97512.85
2019-05-07T23:51:56.265Z,97512.69
2019-05-07T23:54:24.984Z,97511.47
2019-05-07T23:57:05.482Z,97515.92
2019-05-07T23:59:23.317Z,97512.99
